createdAt,value
2018-04-11T00:00:03.959Z,11.437
2018-04-11T00:01:04.710Z,11.5
2018-04-11T00:02:03.845Z,11.5
2018-04-11T00:03:04.115Z,11.5
2018-04-11T00:04:03.512Z,11.437
2018-04-11T00:05:03.821Z,11.437
2018-04-11T00:06:04.166Z,11.437
2018-04-11T00:07:03.595Z,11.437
2018-04-11T00:08:03.852Z,11.5
2018-04-11T00:09:04.219Z,11.5
2018-04-11T00:10:03.954Z,11.562
2018-04-11T00:11:03.974Z,11.562
2018-04-11T00:12:03.586Z,11.625
2018-04-11T00:13:04.954Z,11.562
2018-04-11T00:14:04.086Z,11.625
2018-04-11T00:15:03.931Z,11.625
2018-04-11T00:16:04.198Z,11.812
2018-04-11T00:17:03.578Z,11.812
2018-04-11T00:18:03.940Z,11.75
2018-04-11T00:19:03.565Z,11.687
2018-04-11T00:20:04.567Z,11.687
2018-04-11T00:21:03.613Z,11.625
2018-04-11T00:22:04.038Z,11.562
2018-04-11T00:23:03.834Z,11.562
2018-04-11T00:24:03.896Z,11.625
2018-04-11T00:25:04.264Z,11.625
2018-04-11T00:26:03.761Z,11.625
2018-04-11T00:27:04.045Z,11.625
2018-04-11T00:28:03.686Z,11.687
2018-04-11T00:29:04.026Z,11.625
2018-04-11T00:30:03.753Z,11.625
2018-04-11T00:31:03.679Z,11.562
2018-04-11T00:32:04.043Z,11.562
2018-04-11T00:33:03.446Z,11.625
2018-04-11T00:34:03.665Z,11.687
2018-04-11T00:35:03.576Z,11.75
2018-04-11T00:36:03.740Z,11.687
2018-04-11T00:37:04.020Z,11.687
2018-04-11T00:38:03.709Z,11.687
2018-04-11T00:39:04.330Z,11.687
2018-04-11T00:40:03.900Z,11.687
2018-04-11T00:41:03.665Z,11.812
2018-04-11T00:42:04.064Z,11.812
2018-04-11T00:43:03.458Z,11.75
2018-04-11T00:44:03.822Z,11.75
2018-04-11T00:45:04.146Z,11.687
2018-04-11T00:46:03.405Z,11.625
2018-04-11T00:47:03.870Z,11.625
2018-04-11T00:48:04.107Z,11.562
2018-04-11T00:49:03.467Z,11.625
2018-04-11T00:50:03.804Z,11.625
2018-04-11T00:51:04.297Z,11.625
2018-04-11T00:52:03.678Z,11.625
2018-04-11T00:53:03.887Z,11.75
2018-04-11T00:54:03.417Z,11.687
2018-04-11T00:55:03.588Z,11.625
2018-04-11T00:56:03.846Z,11.687
2018-04-11T00:57:04.097Z,11.687
2018-04-11T00:58:03.327Z,11.687
2018-04-11T00:59:03.598Z,11.687
2018-04-11T01:00:04.195Z,11.625
2018-04-11T01:01:04.472Z,11.562
2018-04-11T01:02:03.360Z,11.562
2018-04-11T01:03:03.611Z,11.5
2018-04-11T01:04:03.836Z,11.5
2018-04-11T01:05:03.364Z,11.437
2018-04-11T01:06:03.704Z,11.375
2018-04-11T01:07:04.024Z,11.437
2018-04-11T01:08:03.322Z,11.5
2018-04-11T01:09:04.103Z,11.5
2018-04-11T01:10:04.117Z,11.5
2018-04-11T01:11:04.170Z,11.437
2018-04-11T01:12:03.368Z,11.437
2018-04-11T01:13:03.786Z,11.437
2018-04-11T01:14:04.034Z,11.5
2018-04-11T01:15:03.848Z,11.437
2018-04-11T01:16:03.999Z,11.375
2018-04-11T01:17:03.438Z,11.312
2018-04-11T01:18:03.954Z,11.375
2018-04-11T01:19:03.292Z,11.375
2018-04-11T01:20:03.956Z,11.437
2018-04-11T01:21:04.144Z,11.437
2018-04-11T01:22:03.540Z,11.375
2018-04-11T01:23:03.738Z,11.312
2018-04-11T01:24:07.174Z,11.25
2018-04-11T01:25:03.843Z,11.375
2018-04-11T01:26:04.170Z,11.375
2018-04-11T01:27:03.687Z,11.437
2018-04-11T01:28:03.259Z,11.437
2018-04-11T01:29:03.527Z,11.437
2018-04-11T01:30:04.037Z,11.5
2018-04-11T01:31:03.333Z,11.562
2018-04-11T01:32:03.671Z,11.5
2018-04-11T01:33:03.982Z,11.375
2018-04-11T01:34:04.280Z,11.312
2018-04-11T01:35:03.439Z,11.25
2018-04-11T01:36:03.660Z,11.25
2018-04-11T01:37:03.953Z,11.25
2018-04-11T01:38:03.280Z,11.312
2018-04-11T01:39:03.903Z,11.312
2018-04-11T01:40:03.433Z,11.312
2018-04-11T01:41:03.886Z,11.375
2018-04-11T01:42:04.302Z,11.25
2018-04-11T01:43:03.733Z,11.187
2018-04-11T01:44:04.108Z,11.25
2018-04-11T01:45:03.491Z,11.312
2018-04-11T01:46:03.833Z,11.312
2018-04-11T01:47:03.352Z,11.187
2018-04-11T01:48:03.579Z,11.25
2018-04-11T01:49:03.823Z,11.312
2018-04-11T01:50:04.190Z,11.25
2018-04-11T01:51:03.488Z,11.187
2018-04-11T01:52:03.892Z,11.187
2018-04-11T01:53:03.418Z,11.187
2018-04-11T01:54:03.765Z,11.187
2018-04-11T01:55:04.119Z,11.187
2018-04-11T01:56:03.406Z,11.25
2018-04-11T01:57:03.780Z,11.187
2018-04-11T01:58:03.606Z,11.187
2018-04-11T01:59:03.898Z,11.187
2018-04-11T02:00:03.611Z,11.187
2018-04-11T02:01:03.819Z,11.312
2018-04-11T02:02:03.353Z,11.375
2018-04-11T02:03:03.958Z,11.375
2018-04-11T02:04:03.370Z,11.375
2018-04-11T02:05:03.812Z,11.312
2018-04-11T02:06:03.360Z,11.312
2018-04-11T02:07:03.554Z,11.312
2018-04-11T02:08:03.719Z,11.25
2018-04-11T02:09:04.230Z,11.187
2018-04-11T02:10:04.120Z,11.25
2018-04-11T02:11:03.521Z,11.25
2018-04-11T02:12:03.901Z,11.312
2018-04-11T02:13:03.205Z,11.25
2018-04-11T02:14:03.845Z,11.187
2018-04-11T02:15:03.957Z,11.312
2018-04-11T02:16:03.451Z,11.25
2018-04-11T02:17:03.895Z,11.25
2018-04-11T02:18:03.791Z,11.187
2018-04-11T02:19:04.162Z,11.187
2018-04-11T02:20:04.507Z,11.25
2018-04-11T02:21:03.758Z,11.312
2018-04-11T02:22:04.152Z,11.375
2018-04-11T02:23:03.442Z,11.375
2018-04-11T02:24:04.875Z,11.375
2018-04-11T02:25:03.864Z,11.312
2018-04-11T02:26:03.908Z,11.25
2018-04-11T02:27:04.125Z,11.187
2018-04-11T02:28:03.953Z,11.25
2018-04-11T02:29:04.108Z,11.187
2018-04-11T02:30:03.558Z,11.25
2018-04-11T02:31:04.197Z,11.187
2018-04-11T02:32:03.690Z,11.25
2018-04-11T02:33:04.262Z,11.25
2018-04-11T02:34:03.590Z,11.312
2018-04-11T02:35:03.897Z,11.375
2018-04-11T02:36:04.121Z,11.375
2018-04-11T02:37:03.919Z,11.375
2018-04-11T02:38:03.977Z,11.375
2018-04-11T02:39:03.481Z,11.375
2018-04-11T02:40:05.340Z,11.375
2018-04-11T02:41:03.527Z,11.375
2018-04-11T02:42:03.807Z,11.312
2018-04-11T02:43:04.244Z,11.312
2018-04-11T02:44:03.539Z,11.25
2018-04-11T02:45:04.145Z,11.375
2018-04-11T02:46:03.471Z,11.375
2018-04-11T02:47:03.699Z,11.312
2018-04-11T02:48:04.159Z,11.25
2018-04-11T02:49:03.491Z,11.312
2018-04-11T02:50:04.261Z,11.375
2018-04-11T02:51:03.538Z,11.437
2018-04-11T02:52:04.014Z,11.5
2018-04-11T02:53:03.577Z,11.5
2018-04-11T02:54:03.761Z,11.437
2018-04-11T02:55:04.080Z,11.5
2018-04-11T02:56:03.338Z,11.562
2018-04-11T02:57:03.623Z,11.625
2018-04-11T02:58:04.046Z,11.625
2018-04-11T02:59:03.433Z,11.562
2018-04-11T03:00:04.325Z,11.562
2018-04-11T03:01:03.683Z,11.625
2018-04-11T03:02:04.049Z,11.687
2018-04-11T03:03:03.467Z,11.812
2018-04-11T03:04:03.723Z,11.75
2018-04-11T03:05:04.656Z,11.812
2018-04-11T03:06:04.079Z,11.812
2018-04-11T03:07:03.342Z,11.75
2018-04-11T03:08:03.571Z,11.75
2018-04-11T03:09:04.251Z,11.75
2018-04-11T03:10:03.815Z,11.75
2018-04-11T03:11:04.045Z,11.812
2018-04-11T03:12:03.576Z,11.75
2018-04-11T03:13:04.089Z,11.75
2018-04-11T03:14:03.957Z,11.75
2018-04-11T03:15:03.371Z,11.75
2018-04-11T03:16:03.770Z,11.75
2018-04-11T03:17:04.308Z,11.75
2018-04-11T03:18:04.151Z,11.75
2018-04-11T03:19:03.495Z,11.75
2018-04-11T03:20:03.726Z,11.75
2018-04-11T03:21:03.320Z,11.812
2018-04-11T03:22:03.615Z,11.75
2018-04-11T03:23:03.871Z,11.75
2018-04-11T03:24:03.590Z,11.75
2018-04-11T03:25:04.146Z,11.687
2018-04-11T03:26:03.412Z,11.625
2018-04-11T03:27:03.581Z,11.687
2018-04-11T03:28:03.485Z,11.687
2018-04-11T03:29:03.883Z,11.625
2018-04-11T03:30:04.156Z,11.625
2018-04-11T03:31:03.616Z,11.562
2018-04-11T03:32:03.870Z,11.562
2018-04-11T03:33:04.230Z,11.562
2018-04-11T03:34:03.542Z,11.562
2018-04-11T03:35:03.994Z,11.562
2018-04-11T03:36:03.357Z,11.562
2018-04-11T03:37:03.779Z,11.562
2018-04-11T03:38:03.288Z,11.562
2018-04-11T03:39:03.725Z,11.562
2018-04-11T03:40:03.727Z,11.625
2018-04-11T03:41:03.926Z,11.687
2018-04-11T03:42:04.366Z,11.625
2018-04-11T03:43:03.778Z,11.625
2018-04-11T03:44:04.146Z,11.625
2018-04-11T03:45:04.485Z,11.625
2018-04-11T03:46:03.637Z,11.562
2018-04-11T03:47:04.081Z,11.562
2018-04-11T03:48:03.684Z,11.5
2018-04-11T03:49:03.952Z,11.5
2018-04-11T03:50:03.662Z,11.5
2018-04-11T03:51:04.069Z,11.5
2018-04-11T03:52:04.280Z,11.437
2018-04-11T03:53:03.568Z,11.5
2018-04-11T03:54:03.907Z,11.437
2018-04-11T03:55:03.280Z,11.437
2018-04-11T03:56:03.664Z,11.437
2018-04-11T03:57:03.972Z,11.437
2018-04-11T03:58:03.499Z,11.437
2018-04-11T03:59:03.894Z,11.375
2018-04-11T04:00:04.028Z,11.375
2018-04-11T04:01:03.264Z,11.375
2018-04-11T04:02:03.544Z,11.312
2018-04-11T04:03:03.822Z,11.312
2018-04-11T04:04:04.326Z,11.375
2018-04-11T04:05:04.425Z,11.375
2018-04-11T04:06:03.630Z,11.375
2018-04-11T04:07:04.010Z,11.312
2018-04-11T04:08:03.370Z,11.375
2018-04-11T04:09:04.078Z,11.375
2018-04-11T04:10:03.820Z,11.375
2018-04-11T04:11:04.182Z,11.375
2018-04-11T04:12:03.602Z,11.375
2018-04-11T04:13:03.906Z,11.375
2018-04-11T04:14:04.150Z,11.375
2018-04-11T04:15:03.569Z,11.375
2018-04-11T04:16:03.975Z,11.375
2018-04-11T04:17:03.404Z,11.375
2018-04-11T04:18:04.096Z,11.375
2018-04-11T04:19:03.232Z,11.375
2018-04-11T04:20:04.000Z,11.375
2018-04-11T04:21:04.212Z,11.375
2018-04-11T04:22:03.556Z,11.375
2018-04-11T04:23:04.012Z,11.375
2018-04-11T04:24:03.411Z,11.375
2018-04-11T04:25:04.233Z,11.312
2018-04-11T04:26:04.128Z,11.375
2018-04-11T04:27:03.516Z,11.375
2018-04-11T04:28:03.927Z,11.375
2018-04-11T04:29:04.140Z,11.375
2018-04-11T04:30:03.640Z,11.312
2018-04-11T04:31:04.070Z,11.312
2018-04-11T04:32:03.573Z,11.375
2018-04-11T04:33:03.766Z,11.375
2018-04-11T04:34:03.518Z,11.375
2018-04-11T04:35:04.015Z,11.375
2018-04-11T04:36:03.440Z,11.375
2018-04-11T04:37:03.880Z,11.437
2018-04-11T04:38:04.406Z,11.437
2018-04-11T04:39:04.207Z,11.437
2018-04-11T04:40:04.125Z,11.375
2018-04-11T04:41:03.481Z,11.437
2018-04-11T04:42:04.004Z,11.437
2018-04-11T04:43:03.431Z,11.437
2018-04-11T04:44:03.503Z,11.437
2018-04-11T04:45:04.724Z,11.5
2018-04-11T04:46:03.727Z,11.437
2018-04-11T04:47:04.034Z,11.437
2018-04-11T04:48:03.437Z,11.312
2018-04-11T04:49:03.789Z,11.25
2018-04-11T04:50:04.100Z,11.187
2018-04-11T04:51:03.589Z,11.25
2018-04-11T04:52:03.916Z,11.187
2018-04-11T04:53:03.344Z,11.25
2018-04-11T04:54:03.607Z,11.25
2018-04-11T04:55:04.020Z,11.187
2018-04-11T04:56:03.471Z,11.125
2018-04-11T04:57:03.910Z,11
2018-04-11T04:58:03.346Z,10.875
2018-04-11T04:59:03.773Z,10.812
2018-04-11T05:00:04.256Z,10.812
2018-04-11T05:01:03.880Z,10.75
2018-04-11T05:02:04.163Z,10.75
2018-04-11T05:03:03.446Z,10.75
2018-04-11T05:04:03.858Z,10.75
2018-04-11T05:05:03.541Z,10.75
2018-04-11T05:06:03.720Z,10.75
2018-04-11T05:07:04.020Z,10.75
2018-04-11T05:08:03.578Z,10.75
2018-04-11T05:09:04.212Z,10.687
2018-04-11T05:10:03.880Z,10.625
2018-04-11T05:11:04.174Z,10.625
2018-04-11T05:12:05.249Z,10.562
2018-04-11T05:13:03.324Z,10.562
2018-04-11T05:14:03.653Z,10.562
2018-04-11T05:15:04.245Z,10.562
2018-04-11T05:16:03.812Z,10.562
2018-04-11T05:17:04.299Z,10.5
2018-04-11T05:18:03.742Z,10.5
2018-04-11T05:19:03.984Z,10.5
2018-04-11T05:20:03.430Z,10.5
2018-04-11T05:21:03.921Z,10.437
2018-04-11T05:22:04.151Z,10.5
2018-04-11T05:23:03.629Z,10.5
2018-04-11T05:24:03.948Z,10.437
2018-04-11T05:25:03.320Z,10.375
2018-04-11T05:26:04.727Z,10.437
2018-04-11T05:27:03.930Z,10.375
2018-04-11T05:28:03.421Z,10.375
2018-04-11T05:29:03.654Z,10.375
2018-04-11T05:30:04.235Z,10.312
2018-04-11T05:31:03.712Z,10.312
2018-04-11T05:32:03.398Z,10.312
2018-04-11T05:33:03.794Z,10.375
2018-04-11T05:34:04.754Z,10.375
2018-04-11T05:35:03.862Z,10.375
2018-04-11T05:36:04.053Z,10.375
2018-04-11T05:37:03.437Z,10.375
2018-04-11T05:38:03.676Z,10.375
2018-04-11T05:39:04.340Z,10.375
2018-04-11T05:40:04.072Z,10.375
2018-04-11T05:41:03.277Z,10.375
2018-04-11T05:42:03.236Z,10.375
2018-04-11T05:43:03.585Z,10.375
2018-04-11T05:44:03.925Z,10.375
2018-04-11T05:45:03.309Z,10.375
2018-04-11T05:46:03.699Z,10.312
2018-04-11T05:47:04.079Z,10.375
2018-04-11T05:48:03.534Z,10.375
2018-04-11T05:49:03.410Z,10.375
2018-04-11T05:50:03.721Z,10.437
2018-04-11T05:51:03.932Z,10.5
2018-04-11T05:52:03.425Z,10.562
2018-04-11T05:53:03.878Z,10.562
2018-04-11T05:54:04.206Z,10.562
2018-04-11T05:55:03.619Z,10.562
2018-04-11T05:56:04.096Z,10.562
2018-04-11T05:57:03.596Z,10.562
2018-04-11T05:58:03.884Z,10.562
2018-04-11T05:59:03.358Z,10.625
2018-04-11T06:00:03.924Z,10.562
2018-04-11T06:01:03.520Z,10.562
2018-04-11T06:02:03.891Z,10.562
2018-04-11T06:03:04.252Z,10.625
2018-04-11T06:04:03.573Z,10.625
2018-04-11T06:05:04.014Z,10.625
2018-04-11T06:06:03.248Z,10.687
2018-04-11T06:07:03.671Z,10.687
2018-04-11T06:08:03.904Z,10.75
2018-04-11T06:09:04.296Z,10.75
2018-04-11T06:10:03.530Z,10.812
2018-04-11T06:11:03.793Z,10.937
2018-04-11T06:12:04.235Z,11
2018-04-11T06:13:03.582Z,11.062
2018-04-11T06:14:03.995Z,11.125
2018-04-11T06:15:04.041Z,11.25
2018-04-11T06:16:03.974Z,11.375
2018-04-11T06:17:03.576Z,11.437
2018-04-11T06:18:03.847Z,11.5
2018-04-11T06:19:03.308Z,11.437
2018-04-11T06:20:03.962Z,11.562
2018-04-11T06:21:03.350Z,11.812
2018-04-11T06:22:03.973Z,11.812
2018-04-11T06:23:03.285Z,11.937
2018-04-11T06:24:03.599Z,12.062
2018-04-11T06:25:03.659Z,12.187
2018-04-11T06:26:04.197Z,12.375
2018-04-11T06:27:03.611Z,12.437
2018-04-11T06:28:03.904Z,12.562
2018-04-11T06:29:04.233Z,12.625
2018-04-11T06:30:03.723Z,12.562
2018-04-11T06:31:04.172Z,12.437
2018-04-11T06:32:03.593Z,12.312
2018-04-11T06:33:04.301Z,12.25
2018-04-11T06:34:03.564Z,12.437
2018-04-11T06:35:04.280Z,12.5
2018-04-11T06:36:03.728Z,12.687
2018-04-11T06:37:04.012Z,13.062
2018-04-11T06:38:03.867Z,13.375
2018-04-11T06:39:03.579Z,13.75
2018-04-11T06:40:04.349Z,14.187
2018-04-11T06:41:04.059Z,14.125
2018-04-11T06:42:03.391Z,14.312
2018-04-11T06:43:03.685Z,14.437
2018-04-11T06:44:04.068Z,14.312
2018-04-11T06:45:03.652Z,14.437
2018-04-11T06:46:03.892Z,14.687
2018-04-11T06:47:03.255Z,14.687
2018-04-11T06:48:03.464Z,14.625
2018-04-11T06:49:03.717Z,14.562
2018-04-11T06:50:04.186Z,14.687
2018-04-11T06:51:04.175Z,14.875
2018-04-11T06:52:04.211Z,15.125
2018-04-11T06:53:03.482Z,15.062
2018-04-11T06:54:03.727Z,15.125
2018-04-11T06:55:03.987Z,15.125
2018-04-11T06:56:04.274Z,15.125
2018-04-11T06:57:04.219Z,15.125
2018-04-11T06:58:03.311Z,15.187
2018-04-11T06:59:03.686Z,15.312
2018-04-11T07:00:04.542Z,15.625
2018-04-11T07:01:03.978Z,15.75
2018-04-11T07:02:04.067Z,15.687
2018-04-11T07:03:03.438Z,15.812
2018-04-11T07:04:03.648Z,15.937
2018-04-11T07:05:04.201Z,15.875
2018-04-11T07:06:03.770Z,16.062
2018-04-11T07:07:04.066Z,16.125
2018-04-11T07:08:03.383Z,16.25
2018-04-11T07:09:03.917Z,16.312
2018-04-11T07:10:03.412Z,16.437
2018-04-11T07:11:03.786Z,16.562
2018-04-11T07:12:03.344Z,16.75
2018-04-11T07:13:03.662Z,16.812
2018-04-11T07:14:03.868Z,17.125
2018-04-11T07:15:04.157Z,17.187
2018-04-11T07:16:03.384Z,17.187
2018-04-11T07:17:03.891Z,17.375
2018-04-11T07:18:04.336Z,17.437
2018-04-11T07:19:03.712Z,17.25
2018-04-11T07:20:04.156Z,17.187
2018-04-11T07:21:03.526Z,17.437
2018-04-11T07:22:04.059Z,17.687
2018-04-11T07:23:03.417Z,17.687
2018-04-11T07:24:03.729Z,17.687
2018-04-11T07:25:04.182Z,18
2018-04-11T07:26:04.019Z,18.25
2018-04-11T07:27:03.498Z,18.062
2018-04-11T07:28:03.725Z,18
2018-04-11T07:29:04.285Z,18.187
2018-04-11T07:30:03.895Z,18.437
2018-04-11T07:31:03.331Z,18.5
2018-04-11T07:32:03.709Z,18.625
2018-04-11T07:33:04.081Z,18.75
2018-04-11T07:34:03.409Z,18.437
2018-04-11T07:35:03.483Z,18.312
2018-04-11T07:36:04.149Z,18.125
2018-04-11T07:37:03.499Z,18.187
2018-04-11T07:38:03.870Z,18.5
2018-04-11T07:39:04.416Z,18.687
2018-04-11T07:40:04.260Z,18.937
2018-04-11T07:41:03.655Z,19
2018-04-11T07:42:04.033Z,19
2018-04-11T07:43:03.435Z,18.875
2018-04-11T07:44:04.049Z,18.812
2018-04-11T07:45:03.469Z,18.812
2018-04-11T07:46:03.644Z,19
2018-04-11T07:47:03.916Z,19.25
2018-04-11T07:48:04.166Z,19.25
2018-04-11T07:49:03.689Z,19.25
2018-04-11T07:50:03.920Z,19.187
2018-04-11T07:51:03.379Z,19.312
2018-04-11T07:52:03.814Z,19.375
2018-04-11T07:53:04.225Z,19.625
2018-04-11T07:54:03.631Z,19.75
2018-04-11T07:55:03.856Z,19.75
2018-04-11T07:56:04.156Z,20
2018-04-11T07:57:04.054Z,20
2018-04-11T07:58:03.467Z,20.187
2018-04-11T07:59:03.891Z,20.125
2018-04-11T08:00:03.418Z,20.125
2018-04-11T08:01:03.830Z,20.062
2018-04-11T08:02:04.146Z,20
2018-04-11T08:03:03.414Z,20
2018-04-11T08:04:03.823Z,20.25
2018-04-11T08:05:04.326Z,20.062
2018-04-11T08:06:03.704Z,20.062
2018-04-11T08:07:03.971Z,20.187
2018-04-11T08:08:03.372Z,19.937
2018-04-11T08:09:04.211Z,20
2018-04-11T08:10:03.938Z,19.937
2018-04-11T08:11:03.452Z,19.812
2018-04-11T08:12:03.717Z,20.187
2018-04-11T08:13:04.114Z,20.437
2018-04-11T08:14:03.467Z,20.5
2018-04-11T08:15:04.032Z,20.187
2018-04-11T08:16:03.288Z,20.187
2018-04-11T08:17:03.729Z,20.25
2018-04-11T08:18:04.053Z,20.375
2018-04-11T08:19:03.402Z,20.25
2018-04-11T08:20:03.706Z,20.562
2018-04-11T08:21:04.036Z,20.937
2018-04-11T08:22:03.540Z,20.875
2018-04-11T08:23:03.957Z,21.062
2018-04-11T08:24:03.313Z,20.937
2018-04-11T08:25:03.714Z,21.187
2018-04-11T08:26:04.135Z,20.687
2018-04-11T08:27:03.523Z,20.625
2018-04-11T08:28:03.885Z,20.25
2018-04-11T08:29:03.341Z,20.5
2018-04-11T08:30:03.966Z,20.437
2018-04-11T08:31:04.050Z,20.375
2018-04-11T08:32:03.554Z,20.437
2018-04-11T08:33:03.964Z,20.437
2018-04-11T08:34:03.541Z,20.312
2018-04-11T08:35:03.971Z,20.312
2018-04-11T08:36:03.363Z,20.625
2018-04-11T08:37:03.670Z,20.5
2018-04-11T08:38:03.895Z,20.312
2018-04-11T08:39:03.680Z,20.562
2018-04-11T08:40:04.175Z,20.625
2018-04-11T08:41:03.865Z,20.687
2018-04-11T08:42:03.506Z,20.812
2018-04-11T08:43:03.723Z,20.937
2018-04-11T08:44:04.058Z,20.937
2018-04-11T08:45:03.657Z,21.125
2018-04-11T08:46:03.546Z,21.25
2018-04-11T08:47:03.872Z,21.312
2018-04-11T08:48:04.103Z,21.687
2018-04-11T08:49:03.458Z,21.5
2018-04-11T08:50:04.051Z,21.187
2018-04-11T08:51:03.411Z,20.937
2018-04-11T08:52:03.795Z,20.812
2018-04-11T08:53:04.136Z,21.125
2018-04-11T08:54:03.409Z,21.125
2018-04-11T08:55:03.677Z,20.937
2018-04-11T08:56:03.929Z,21.25
2018-04-11T08:57:03.334Z,21.375
2018-04-11T08:58:03.644Z,21.5
2018-04-11T08:59:04.188Z,21.687
2018-04-11T09:00:03.768Z,21.875
2018-04-11T09:01:03.486Z,21.937
2018-04-11T09:02:03.780Z,21.75
2018-04-11T09:03:04.191Z,21.187
2018-04-11T09:04:03.575Z,21.437
2018-04-11T09:05:04.133Z,21.562
2018-04-11T09:06:03.335Z,21.625
2018-04-11T09:07:03.705Z,21.437
2018-04-11T09:08:04.097Z,21.437
2018-04-11T09:09:03.778Z,21.312
2018-04-11T09:10:04.498Z,21.437
2018-04-11T09:11:03.976Z,21.812
2018-04-11T09:12:03.305Z,22.125
2018-04-11T09:13:03.650Z,21.562
2018-04-11T09:14:04.002Z,21.5
2018-04-11T09:15:03.953Z,21.562
2018-04-11T09:16:04.092Z,21.75
2018-04-11T09:17:04.159Z,21.5
2018-04-11T09:18:04.287Z,21
2018-04-11T09:19:03.478Z,20.5
2018-04-11T09:20:05.439Z,20.125
2018-04-11T09:21:03.468Z,20.062
2018-04-11T09:22:03.896Z,19.75
2018-04-11T09:23:03.313Z,19.75
2018-04-11T09:24:03.559Z,19.437
2018-04-11T09:25:03.870Z,19.312
2018-04-11T09:26:04.181Z,19.437
2018-04-11T09:27:04.210Z,19.5
2018-04-11T09:28:03.362Z,19.312
2018-04-11T09:29:03.687Z,19.25
2018-04-11T09:31:03.773Z,18.937
2018-04-11T09:32:03.968Z,19.125
2018-04-11T09:33:03.334Z,19.625
2018-04-11T09:34:03.646Z,20.312
2018-04-11T09:35:04.016Z,20.687
2018-04-11T09:36:03.982Z,20.875
2018-04-11T09:37:03.189Z,20.5
2018-04-11T09:38:03.669Z,20.187
2018-04-11T09:39:04.252Z,20.062
2018-04-11T09:40:05.258Z,20.062
2018-04-11T09:41:03.842Z,20
2018-04-11T09:42:04.165Z,20.312
2018-04-11T09:43:03.601Z,20.375
2018-04-11T09:44:03.824Z,20.562
2018-04-11T09:45:04.294Z,20.625
2018-04-11T09:46:03.540Z,20.75
2018-04-11T09:47:03.912Z,21.062
2018-04-11T09:48:04.150Z,20.875
2018-04-11T09:49:03.344Z,21
2018-04-11T09:50:03.813Z,21.312
2018-04-11T09:51:03.877Z,21.437
2018-04-11T09:52:03.635Z,21.562
2018-04-11T09:53:03.792Z,21.75
2018-04-11T09:54:04.194Z,21.937
2018-04-11T09:55:03.657Z,21.937
2018-04-11T09:56:04.191Z,21.812
2018-04-11T09:57:03.527Z,21.75
2018-04-11T09:58:03.822Z,21.625
2018-04-11T09:59:04.200Z,21.75
2018-04-11T10:00:03.693Z,21.875
2018-04-11T10:01:04.640Z,21.937
2018-04-11T10:02:03.994Z,22.187
2018-04-11T10:03:03.594Z,22.125
2018-04-11T10:04:03.847Z,22.437
2018-04-11T10:05:04.253Z,22.312
2018-04-11T10:06:03.815Z,22.312
2018-04-11T10:07:04.058Z,22.562
2018-04-11T10:08:03.413Z,22.562
2018-04-11T10:09:03.484Z,22.437
2018-04-11T10:10:04.200Z,22.437
2018-04-11T10:11:03.660Z,22.437
2018-04-11T10:12:04.157Z,22.562
2018-04-11T10:13:03.262Z,22.25
2018-04-11T10:14:04.125Z,21.937
2018-04-11T10:15:03.536Z,21.687
2018-04-11T10:16:03.926Z,21.812
2018-04-11T10:17:04.308Z,21.812
2018-04-11T10:18:04.331Z,21.625
2018-04-11T10:19:03.470Z,21.812
2018-04-11T10:20:03.841Z,21.937
2018-04-11T10:21:03.302Z,22
2018-04-11T10:22:03.594Z,22.062
2018-04-11T10:23:03.732Z,22.312
2018-04-11T10:24:04.112Z,21.875
2018-04-11T10:25:03.944Z,22.062
2018-04-11T10:26:03.247Z,22
2018-04-11T10:27:03.641Z,22.25
2018-04-11T10:28:04.033Z,22.312
2018-04-11T10:29:03.473Z,22.375
2018-04-11T10:30:04.133Z,22.375
2018-04-11T10:31:03.667Z,22.75
2018-04-11T10:32:04.072Z,22.75
2018-04-11T10:33:03.365Z,22.562
2018-04-11T10:34:03.893Z,22.375
2018-04-11T10:35:04.144Z,22.312
2018-04-11T10:36:03.391Z,21.937
2018-04-11T10:37:03.755Z,22.062
2018-04-11T10:38:04.227Z,21.937
2018-04-11T10:39:04.229Z,21.875
2018-04-11T10:40:04.021Z,21.937
2018-04-11T10:41:03.455Z,21.937
2018-04-11T10:42:03.990Z,22.187
2018-04-11T10:43:03.893Z,22.187
2018-04-11T10:44:04.350Z,22.312
2018-04-11T10:45:05.270Z,22.562
2018-04-11T10:46:03.973Z,22.687
2018-04-11T10:47:03.588Z,23
2018-04-11T10:48:03.938Z,23.062
2018-04-11T10:49:03.366Z,23.25
2018-04-11T10:50:03.752Z,23.375
2018-04-11T10:51:03.532Z,23.437
2018-04-11T10:52:05.145Z,23.312
2018-04-11T10:53:03.862Z,23.437
2018-04-11T10:54:03.612Z,23.312
2018-04-11T10:55:04.383Z,23.062
2018-04-11T10:56:03.840Z,22.812
2018-04-11T10:57:04.147Z,22.875
2018-04-11T10:58:03.842Z,22.625
2018-04-11T10:59:03.504Z,22.312
2018-04-11T11:00:04.334Z,22.062
2018-04-11T11:01:04.395Z,22
2018-04-11T11:02:03.855Z,21.75
2018-04-11T11:03:04.226Z,21.875
2018-04-11T11:04:03.570Z,22.125
2018-04-11T11:05:04.108Z,22.5
2018-04-11T11:06:03.712Z,22.875
2018-04-11T11:07:04.011Z,23.312
2018-04-11T11:08:03.860Z,23.75
2018-04-11T11:09:04.686Z,23.687
2018-04-11T11:10:03.868Z,23.625
2018-04-11T11:11:03.712Z,23.562
2018-04-11T11:12:04.218Z,23.125
2018-04-11T11:13:04.269Z,22.875
2018-04-11T11:14:03.559Z,22.687
2018-04-11T11:15:04.016Z,22.812
2018-04-11T11:16:03.619Z,23.062
2018-04-11T11:17:03.424Z,23.062
2018-04-11T11:18:04.027Z,23.437
2018-04-11T11:19:03.603Z,23.375
2018-04-11T11:20:04.587Z,23.25
2018-04-11T11:21:03.782Z,23.25
2018-04-11T11:22:03.386Z,23.062
2018-04-11T11:23:03.929Z,22.875
2018-04-11T11:24:03.492Z,22.5
2018-04-11T11:25:03.911Z,22.562
2018-04-11T11:26:04.031Z,22.312
2018-04-11T11:27:03.392Z,21.812
2018-04-11T11:28:04.145Z,21.812
2018-04-11T11:29:03.341Z,21.875
2018-04-11T11:30:03.962Z,21.875
2018-04-11T11:31:03.519Z,21.937
2018-04-11T11:32:03.809Z,22.062
2018-04-11T11:33:04.242Z,22
2018-04-11T11:34:03.578Z,22.062
2018-04-11T11:35:03.854Z,22.187
2018-04-11T11:36:04.293Z,22.25
2018-04-11T11:37:03.587Z,22.25
2018-04-11T11:38:03.961Z,22.125
2018-04-11T11:39:03.417Z,21.937
2018-04-11T11:40:04.300Z,22.062
2018-04-11T11:41:03.528Z,22.187
2018-04-11T11:42:03.939Z,22
2018-04-11T11:43:03.459Z,21.812
2018-04-11T11:44:03.763Z,21.437
2018-04-11T11:45:04.109Z,21.5
2018-04-11T11:46:03.530Z,21.5
2018-04-11T11:47:04.022Z,21.437
2018-04-11T11:48:03.670Z,21.562
2018-04-11T11:49:03.904Z,21.875
2018-04-11T11:50:04.216Z,21.812
2018-04-11T11:51:03.670Z,21.75
2018-04-11T11:52:04.212Z,21.812
2018-04-11T11:53:03.491Z,21.875
2018-04-11T11:54:03.718Z,22.187
2018-04-11T11:55:04.047Z,22.375
2018-04-11T11:56:03.482Z,22.5
2018-04-11T11:57:03.781Z,22.437
2018-04-11T11:58:04.166Z,22.312
2018-04-11T11:59:03.518Z,22.5
2018-04-11T12:00:04.124Z,22.687
2018-04-11T12:01:04.008Z,22.625
2018-04-11T12:02:03.378Z,22.437
2018-04-11T12:03:04.204Z,22.5
2018-04-11T12:04:03.654Z,22.687
2018-04-11T12:05:04.061Z,22
2018-04-11T12:06:03.672Z,21.75
2018-04-11T12:07:03.984Z,21.875
2018-04-11T12:08:03.321Z,21.937
2018-04-11T12:09:03.847Z,21.75
2018-04-11T12:10:03.554Z,21.875
2018-04-11T12:11:04.055Z,21.75
2018-04-11T12:12:03.469Z,21.75
2018-04-11T12:13:03.429Z,21.812
2018-04-11T12:14:03.658Z,21.937
2018-04-11T12:15:03.995Z,22.187
2018-04-11T12:16:03.479Z,22.187
2018-04-11T12:17:03.988Z,22.062
2018-04-11T12:18:03.620Z,21.812
2018-04-11T12:19:04.048Z,22
2018-04-11T12:20:03.287Z,22.125
2018-04-11T12:21:03.610Z,22.437
2018-04-11T12:22:04.037Z,22.5
2018-04-11T12:23:03.548Z,22.187
2018-04-11T12:24:03.999Z,22.125
2018-04-11T12:25:03.743Z,22.125
2018-04-11T12:26:03.851Z,21.875
2018-04-11T12:27:03.307Z,21.75
2018-04-11T12:28:03.702Z,21.5
2018-04-11T12:29:04.135Z,21.312
2018-04-11T12:30:04.244Z,21.25
2018-04-11T12:31:03.448Z,21.312
2018-04-11T12:32:03.827Z,21.437
2018-04-11T12:33:04.412Z,21.437
2018-04-11T12:34:03.650Z,21.187
2018-04-11T12:35:03.927Z,21.062
2018-04-11T12:36:03.351Z,21.062
2018-04-11T12:37:03.653Z,21.125
2018-04-11T12:38:04.020Z,20.875